Time;durP1;ratioP1;P1;durP2;ratioP2;P2;SDS_P1;SDS_P2;PMS_P1;PMS_P2;Temp;Humidity;BMP_temperature;BMP_pressure;BME280_temperature;BME280_humidity;BME280_pressure;Samples;Min_cycle;Max_cycle;Signal;HPM_P1;HPM_P2
2021/04/21 00:02:06;;;;;;;55.47;33.92;;;5.50;99.90;;;;;;5062417;28;20380;-73
2021/04/21 00:04:33;;;;;;;37.80;23.55;;;5.50;99.90;;;;;;5068149;28;20025;-73
2021/04/21 00:07:00;;;;;;;24.10;17.08;;;5.30;99.90;;;;;;5054622;28;20036;-73
2021/04/21 00:09:27;;;;;;;20.88;14.43;;;5.30;99.90;;;;;;5054341;28;20079;-73
2021/04/21 00:11:55;;;;;;;25.02;16.58;;;5.20;99.90;;;;;;5054648;28;20025;-73
2021/04/21 00:14:26;;;;;;;21.52;14.52;;;5.20;99.90;;;;;;5061515;28;20029;-73
2021/04/21 00:16:56;;;;;;;29.30;20.23;;;5.20;99.90;;;;;;5054469;28;20033;-73
2021/04/21 00:19:24;;;;;;;23.63;17.70;;;5.20;99.90;;;;;;5053538;28;20037;-73
2021/04/21 00:21:50;;;;;;;24.33;17.67;;;5.20;99.90;;;;;;5054408;28;20021;-73
2021/04/21 00:24:17;;;;;;;23.45;16.77;;;5.20;99.90;;;;;;5063504;28;20365;-74
2021/04/21 00:26:46;;;;;;;22.45;15.93;;;5.10;99.90;;;;;;5060306;28;20051;-73
2021/04/21 00:29:14;;;;;;;23.08;15.95;;;5.10;99.90;;;;;;5054692;28;20032;-73
2021/04/21 00:31:44;;;;;;;22.48;14.57;;;5.10;99.90;;;;;;5053988;28;20048;-73
2021/04/21 00:34:12;;;;;;;23.48;15.77;;;5.20;99.90;;;;;;5064136;28;20036;-73
2021/04/21 00:36:42;;;;;;;26.83;17.63;;;5.10;99.90;;;;;;5053772;28;20063;-73
2021/04/21 00:39:10;;;;;;;26.02;18.25;;;5.00;99.90;;;;;;5064980;28;20032;-72
2021/04/21 00:41:51;;;;;;;27.17;20.33;;;5.00;99.90;;;;;;5060385;28;20029;-72
2021/04/21 00:44:45;;;;;;;29.67;19.75;;;5.00;99.90;;;;;;5060916;28;20024;-73
2021/04/21 00:47:23;;;;;;;30.20;19.00;;;5.10;99.90;;;;;;5054041;28;20048;-73
2021/04/21 00:49:59;;;;;;;30.80;20.13;;;5.20;99.90;;;;;;5052966;28;20037;-73
2021/04/21 00:52:38;;;;;;;28.10;19.70;;;5.10;99.90;;;;;;5052781;28;20052;-73
2021/04/21 00:55:10;;;;;;;28.67;19.80;;;5.00;99.90;;;;;;5053744;28;20043;-73
2021/04/21 00:57:58;;;;;;;29.35;19.10;;;4.90;99.90;;;;;;5052538;28;20485;-74
2021/04/21 01:00:32;;;;;;;38.38;20.10;;;4.80;99.90;;;;;;5052173;28;20495;-73
2021/04/21 01:03:19;;;;;;;30.27;21.20;;;4.80;99.90;;;;;;5051851;28;20037;-74
2021/04/21 01:05:57;;;;;;;30.17;19.83;;;4.80;99.90;;;;;;5068332;28;20033;-74
2021/04/21 01:08:29;;;;;;;29.35;20.00;;;4.80;99.90;;;;;;5053133;28;20043;-74
2021/04/21 01:11:11;;;;;;;31.70;18.65;;;4.80;99.90;;;;;;5055181;28;20128;-72
2021/04/21 01:13:44;;;;;;;27.00;17.92;;;4.70;99.90;;;;;;5066507;28;20040;-73
2021/04/21 01:16:12;;;;;;;29.50;19.10;;;4.60;99.90;;;;;;5059602;28;20045;-73
2021/04/21 01:18:43;;;;;;;28.77;18.40;;;4.70;99.90;;;;;;5052998;28;20036;-73
2021/04/21 01:21:16;;;;;;;28.77;17.75;;;4.50;99.90;;;;;;5053203;28;20457;-73
2021/04/21 01:23:58;;;;;;;28.40;18.75;;;4.30;99.90;;;;;;5053155;28;20033;-73
2021/04/21 01:26:45;;;;;;;33.20;20.95;;;4.20;99.90;;;;;;5054349;28;20036;-73
2021/04/21 01:29:17;;;;;;;30.23;20.13;;;4.20;99.90;;;;;;5070126;28;20032;-73
2021/04/21 01:31:47;;;;;;;33.00;20.75;;;4.20;99.90;;;;;;5054110;28;20045;-73
2021/04/21 01:34:16;;;;;;;30.42;21.90;;;4.30;99.90;;;;;;5065193;28;20488;-72
2021/04/21 01:36:45;;;;;;;31.05;19.83;;;4.30;99.90;;;;;;5063199;28;20044;-72
2021/04/21 01:39:12;;;;;;;31.95;20.75;;;4.30;99.90;;;;;;5052657;28;20021;-73
2021/04/21 01:41:43;;;;;;;34.42;20.92;;;4.30;99.90;;;;;;5052402;28;20033;-73
2021/04/21 01:44:14;;;;;;;32.13;21.08;;;4.30;99.90;;;;;;5072906;28;20040;-73
2021/04/21 01:46:43;;;;;;;32.10;19.45;;;4.20;99.90;;;;;;5053238;28;20029;-73
2021/04/21 01:49:35;;;;;;;30.67;20.33;;;4.20;99.90;;;;;;5068263;28;20024;-73
2021/04/21 01:52:31;;;;;;;32.10;20.45;;;4.10;99.90;;;;;;5056516;28;20031;-73
2021/04/21 01:55:03;;;;;;;32.00;21.10;;;4.10;99.90;;;;;;5066640;28;20032;-73
2021/04/21 01:57:47;;;;;;;27.88;19.63;;;4.00;99.90;;;;;;5052226;28;20369;-73
2021/04/21 02:00:30;;;;;;;29.48;18.25;;;3.80;99.90;;;;;;5054037;28;20044;-72
2021/04/21 02:03:17;;;;;;;29.42;18.77;;;3.60;99.90;;;;;;5052763;28;20051;-72
2021/04/21 02:06:18;;;;;;;33.22;19.95;;;3.50;99.90;;;;;;5052458;28;20025;-73
2021/04/21 02:09:09;;;;;;;33.03;20.60;;;3.30;99.90;;;;;;5043680;28;20037;-73
2021/04/21 02:11:39;;;;;;;36.15;21.95;;;3.40;99.90;;;;;;5055708;28;20020;-74
2021/04/21 02:14:26;;;;;;;36.63;23.00;;;3.30;99.90;;;;;;5067084;28;20359;-73
2021/04/21 02:16:56;;;;;;;39.55;23.17;;;3.30;99.90;;;;;;5052315;28;20056;-73
2021/04/21 02:19:26;;;;;;;34.80;21.58;;;3.40;99.90;;;;;;5065262;28;20037;-73
2021/04/21 02:22:07;;;;;;;40.53;23.40;;;3.40;99.90;;;;;;5058037;28;20032;-72
2021/04/21 02:24:55;;;;;;;38.35;23.20;;;3.50;99.90;;;;;;5062744;28;20033;-73
2021/04/21 02:27:40;;;;;;;36.17;22.17;;;3.60;99.90;;;;;;5061973;28;20508;-71
2021/04/21 02:30:14;;;;;;;31.20;21.13;;;3.60;99.90;;;;;;5052032;28;20046;-73
2021/04/21 02:33:08;;;;;;;34.65;20.13;;;3.50;99.90;;;;;;5051738;28;20049;-72
2021/04/21 02:35:51;;;;;;;29.50;19.92;;;3.50;99.90;;;;;;5063242;28;20079;-73
2021/04/21 02:38:49;;;;;;;29.90;19.75;;;3.50;99.90;;;;;;5056971;28;20033;-73
2021/04/21 02:41:21;;;;;;;31.90;19.30;;;3.40;99.90;;;;;;5051984;28;20025;-72
2021/04/21 02:44:24;;;;;;;31.42;18.95;;;3.40;99.90;;;;;;5051517;28;20037;-73
2021/04/21 02:47:12;;;;;;;31.55;18.88;;;3.30;99.90;;;;;;5051622;28;20362;-73
2021/04/21 02:50:07;;;;;;;34.67;20.80;;;3.30;99.90;;;;;;5051651;28;20021;-73
2021/04/21 02:53:00;;;;;;;32.25;19.70;;;3.20;99.90;;;;;;5063105;28;20020;-74
2021/04/21 02:55:50;;;;;;;29.52;17.90;;;3.20;99.90;;;;;;5051226;28;20025;-73
2021/04/21 02:58:55;;;;;;;31.25;18.85;;;3.10;99.90;;;;;;5054811;28;20036;-73
2021/04/21 03:01:30;;;;;;;30.23;20.20;;;3.10;99.90;;;;;;5061808;28;20485;-73
2021/04/21 03:04:22;;;;;;;30.38;20.60;;;3.10;99.90;;;;;;5059695;28;20044;-73
2021/04/21 03:06:50;;;;;;;29.55;19.50;;;3.10;99.90;;;;;;5051482;28;20044;-73
2021/04/21 03:09:32;;;;;;;33.03;20.80;;;3.00;99.90;;;;;;5055299;28;20480;-73
2021/04/21 03:12:02;;;;;;;28.98;19.70;;;2.90;99.90;;;;;;5060718;28;20056;-72
2021/04/21 03:14:31;;;;;;;32.15;20.40;;;2.80;99.90;;;;;;5051270;28;20346;-73
2021/04/21 03:16:59;;;;;;;32.03;21.38;;;2.70;99.90;;;;;;5051905;28;20461;-73
2021/04/21 03:19:32;;;;;;;33.15;21.30;;;2.70;99.90;;;;;;5051244;28;20056;-73
2021/04/21 03:22:02;;;;;;;35.28;22.27;;;2.70;99.90;;;;;;5051669;28;20025;-72
2021/04/21 03:24:31;;;;;;;38.50;23.90;;;2.70;99.90;;;;;;5050956;28;20033;-73
2021/04/21 03:27:03;;;;;;;41.83;25.20;;;2.80;99.90;;;;;;5051633;28;20028;-72
2021/04/21 03:29:38;;;;;;;36.53;23.67;;;2.90;99.90;;;;;;5050863;28;20389;-73
2021/04/21 03:32:10;;;;;;;37.05;24.08;;;2.90;99.90;;;;;;5064730;28;20044;-73
2021/04/21 03:34:38;;;;;;;37.45;23.33;;;2.90;99.90;;;;;;5051371;28;20052;-73
2021/04/21 03:37:20;;;;;;;43.22;25.42;;;2.80;99.90;;;;;;5055243;28;20512;-73
2021/04/21 03:39:47;;;;;;;31.98;19.92;;;2.80;99.90;;;;;;5055907;28;20040;-73
2021/04/21 03:42:13;;;;;;;34.22;21.85;;;2.70;99.90;;;;;;5057703;28;20039;-73
2021/04/21 03:44:43;;;;;;;38.00;22.20;;;2.70;99.90;;;;;;5060762;28;20032;-73
2021/04/21 03:47:10;;;;;;;38.95;22.65;;;2.60;99.90;;;;;;5074738;28;20032;-73
2021/04/21 03:49:38;;;;;;;35.38;21.05;;;2.50;99.90;;;;;;5072586;28;20465;-73
2021/04/21 03:52:06;;;;;;;36.72;21.75;;;2.50;99.90;;;;;;5054963;28;20029;-73
2021/04/21 03:54:34;;;;;;;37.25;22.70;;;2.50;99.90;;;;;;5054579;28;20028;-73
2021/04/21 03:57:03;;;;;;;35.83;22.52;;;2.60;99.90;;;;;;5054900;28;20032;-73
2021/04/21 03:59:32;;;;;;;37.08;23.25;;;2.60;99.90;;;;;;5054581;28;20370;-73
2021/04/21 04:02:01;;;;;;;29.20;18.92;;;2.60;99.90;;;;;;5054995;28;20028;-73
2021/04/21 04:04:33;;;;;;;30.65;21.23;;;2.50;99.90;;;;;;5054408;28;20041;-73
2021/04/21 04:07:05;;;;;;;35.38;22.45;;;2.50;99.90;;;;;;5060382;28;20041;-73
2021/04/21 04:09:35;;;;;;;38.33;22.38;;;2.60;99.90;;;;;;5054552;28;20451;-73
2021/04/21 04:12:05;;;;;;;30.58;21.10;;;2.60;99.90;;;;;;5063329;28;20025;-74
2021/04/21 04:14:33;;;;;;;31.85;19.85;;;2.60;99.90;;;;;;5054178;28;20041;-74
2021/04/21 04:17:02;;;;;;;40.00;22.80;;;2.60;99.90;;;;;;5054531;28;20035;-74
2021/04/21 04:19:32;;;;;;;36.10;21.00;;;2.40;99.90;;;;;;5054087;28;20029;-73
2021/04/21 04:22:13;;;;;;;35.05;20.30;;;2.50;99.90;;;;;;5057303;28;20366;-74
2021/04/21 04:24:43;;;;;;;32.20;20.53;;;2.40;99.90;;;;;;5060204;28;20048;-74
2021/04/21 04:27:24;;;;;;;37.10;21.00;;;2.60;99.90;;;;;;5054768;28;20029;-74
2021/04/21 04:29:52;;;;;;;36.88;22.63;;;2.60;99.90;;;;;;5054275;28;20017;-74
2021/04/21 04:32:20;;;;;;;44.05;24.98;;;2.60;99.90;;;;;;5072129;28;20507;-74
2021/04/21 04:34:49;;;;;;;43.10;25.00;;;2.60;99.90;;;;;;5055456;28;20037;-74
2021/04/21 04:37:18;;;;;;;36.97;23.42;;;2.50;99.90;;;;;;5054055;28;20051;-74
2021/04/21 04:39:45;;;;;;;37.42;22.45;;;2.60;99.90;;;;;;5068752;28;20028;-74
2021/04/21 04:42:12;;;;;;;35.17;21.63;;;2.60;99.90;;;;;;5068679;28;20041;-74
2021/04/21 04:44:40;;;;;;;30.70;20.80;;;2.60;99.90;;;;;;5058006;28;20754;-73
2021/04/21 04:47:25;;;;;;;35.35;21.08;;;2.70;99.90;;;;;;5053732;28;20369;-75
2021/04/21 04:50:21;;;;;;;34.20;20.63;;;2.70;99.90;;;;;;5054820;28;20036;-75
2021/04/21 04:52:50;;;;;;;34.03;21.13;;;2.70;99.90;;;;;;5053675;28;20350;-74
2021/04/21 04:55:18;;;;;;;30.67;19.65;;;2.90;99.90;;;;;;5053871;28;20036;-74
2021/04/21 04:57:47;;;;;;;32.60;20.48;;;2.90;99.90;;;;;;5064909;28;20025;-73
2021/04/21 05:00:19;;;;;;;29.67;19.38;;;3.00;99.90;;;;;;5053877;28;20025;-74
2021/04/21 05:02:58;;;;;;;31.73;21.10;;;3.10;99.90;;;;;;5053746;28;20028;-74
2021/04/21 05:05:26;;;;;;;27.20;18.33;;;3.30;99.90;;;;;;5053328;28;20029;-74
2021/04/21 05:08:00;;;;;;;27.08;18.10;;;3.90;99.90;;;;;;5053440;28;20029;-75
2021/04/21 05:10:32;;;;;;;25.35;18.45;;;4.50;99.90;;;;;;5053105;28;20115;-76
2021/04/21 05:13:02;;;;;;;21.88;17.10;;;5.10;99.90;;;;;;5057477;28;20489;-75
2021/04/21 05:15:34;;;;;;;16.23;11.82;;;5.50;99.90;;;;;;5070727;28;20047;-75
2021/04/21 05:18:22;;;;;;;21.38;16.90;;;5.80;99.90;;;;;;5059287;28;20346;-75
2021/04/21 05:21:12;;;;;;;23.65;15.98;;;6.40;99.90;;;;;;5053186;28;20032;-75
2021/04/21 05:24:08;;;;;;;20.83;14.13;;;7.00;99.80;;;;;;5052600;28;20366;-75
2021/04/21 05:26:35;;;;;;;22.40;15.75;;;7.40;96.10;;;;;;5052974;28;20040;-75
2021/04/21 05:29:23;;;;;;;19.35;14.90;;;7.50;94.70;;;;;;5052749;28;20024;-75
2021/04/21 05:32:11;;;;;;;19.88;15.93;;;8.00;93.10;;;;;;5056542;28;20041;-75
2021/04/21 05:35:09;;;;;;;21.63;15.07;;;8.70;90.20;;;;;;5062404;28;20485;-75
2021/04/21 05:37:54;;;;;;;20.83;14.20;;;8.60;86.20;;;;;;5052536;28;20033;-75
2021/04/21 05:40:51;;;;;;;17.08;14.48;;;8.50;87.20;;;;;;5054011;28;20029;-74
2021/04/21 05:43:57;;;;;;;17.83;15.05;;;8.40;89.10;;;;;;5064530;28;20040;-75
2021/04/21 05:46:41;;;;;;;17.60;14.05;;;9.50;85.50;;;;;;5055653;28;20036;-74
2021/04/21 05:49:41;;;;;;;17.83;14.25;;;11.00;79.00;;;;;;5067246;28;20037;-75
2021/04/21 05:52:33;;;;;;;17.35;14.55;;;11.70;74.10;;;;;;5059824;28;20040;-74
2021/04/21 05:55:20;;;;;;;21.17;13.25;;;12.10;71.20;;;;;;5051607;28;20041;-75
2021/04/21 05:58:31;;;;;;;28.90;23.70;;;12.60;68.70;;;;;;5054206;28;20469;-74
2021/04/21 06:01:06;;;;;;;;;;;12.60;67.90;;;;;;5056550;28;20366;-74
2021/04/21 06:03:36;;;;;;;20.08;16.15;;;12.60;68.10;;;;;;5052150;28;19916;-75
2021/04/21 06:06:03;;;;;;;;;;;13.20;67.00;;;;;;5052832;28;20446;-74
2021/04/21 06:08:30;;;;;;;18.67;14.98;;;13.00;67.80;;;;;;5051992;28;20345;-74
2021/04/21 06:10:57;;;;;;;18.05;15.32;;;12.80;68.70;;;;;;5052164;28;20465;-74
2021/04/21 06:13:28;;;;;;;16.63;13.82;;;12.80;68.80;;;;;;5051833;28;20039;-74
2021/04/21 06:15:55;;;;;;;18.63;15.35;;;12.60;69.30;;;;;;5062436;28;20035;-74
2021/04/21 06:18:22;;;;;;;18.80;15.18;;;12.30;70.20;;;;;;5061045;28;20052;-75
2021/04/21 06:20:49;;;;;;;18.45;14.30;;;12.70;69.40;;;;;;5052016;28;20032;-75
2021/04/21 06:23:27;;;;;;;17.65;15.15;;;13.00;69.10;;;;;;5068301;28;20032;-76
2021/04/21 06:26:01;;;;;;;25.45;15.57;;;13.20;68.20;;;;;;5076812;28;20033;-88
2021/04/21 06:28:28;;;;;;;16.75;14.80;;;12.70;69.60;;;;;;5063029;28;20029;-88
2021/04/21 06:31:07;;;;;;;15.43;13.82;;;12.50;69.70;;;;;;5053350;28;20464;-88
2021/04/21 06:33:35;;;;;;;17.80;14.25;;;12.20;71.80;;;;;;5061428;28;20396;-86
2021/04/21 06:36:03;;;;;;;15.38;13.13;;;12.40;71.40;;;;;;5052397;28;20369;-88
2021/04/21 06:38:31;;;;;;;16.05;13.32;;;12.70;70.00;;;;;;5052045;28;20055;-88
2021/04/21 06:40:58;;;;;;;15.52;13.27;;;13.40;68.30;;;;;;5052542;28;21000;-88
2021/04/21 06:43:32;;;;;;;16.38;13.70;;;13.20;68.50;;;;;;5052027;28;20358;-89
2021/04/21 06:45:58;;;;;;;14.02;11.85;;;12.70;70.00;;;;;;5052448;28;20036;-89
2021/04/21 06:48:30;;;;;;;15.43;12.77;;;12.80;69.70;;;;;;5051898;28;20033;-87
2021/04/21 06:51:15;;;;;;;13.85;11.55;;;12.40;70.20;;;;;;5052234;28;20445;-88
2021/04/21 06:53:43;;;;;;;14.55;12.45;;;12.80;70.20;;;;;;5072005;28;20036;-87
2021/04/21 06:56:10;;;;;;;13.45;12.05;;;13.30;69.20;;;;;;5054318;28;20453;-89
2021/04/21 06:58:38;;;;;;;14.50;12.85;;;14.30;66.50;;;;;;5056713;28;20504;-87
2021/04/21 07:01:13;;;;;;;14.73;12.48;;;14.30;65.90;;;;;;5059679;28;20051;-89
2021/04/21 07:03:41;;;;;;;14.63;13.15;;;13.90;67.60;;;;;;5059809;28;20024;-89
2021/04/21 07:06:08;;;;;;;16.33;13.25;;;14.70;64.60;;;;;;5063952;28;20025;-89
2021/04/21 07:08:38;;;;;;;13.80;12.40;;;14.60;65.50;;;;;;5051807;28;20472;-89
2021/04/21 07:11:08;;;;;;;13.88;12.48;;;14.80;65.70;;;;;;5055901;28;20512;-87
2021/04/21 07:13:45;;;;;;;15.85;12.38;;;14.30;65.00;;;;;;5062881;28;20047;-89
2021/04/21 07:16:24;;;;;;;14.15;12.15;;;14.60;65.30;;;;;;5068933;28;20025;-88
2021/04/21 07:18:55;;;;;;;14.32;12.82;;;15.20;62.80;;;;;;5056314;28;20449;-88
2021/04/21 07:21:22;;;;;;;15.57;12.73;;;15.50;62.30;;;;;;5055784;28;20033;-88
2021/04/21 07:23:58;;;;;;;14.15;12.63;;;14.60;63.70;;;;;;5055813;28;20028;-88
2021/04/21 07:26:29;;;;;;;15.98;13.38;;;15.40;62.60;;;;;;5055846;28;20021;-87
2021/04/21 07:28:56;;;;;;;15.50;13.38;;;15.50;61.70;;;;;;5055984;28;20037;-88
2021/04/21 07:31:22;;;;;;;14.70;12.68;;;16.10;60.80;;;;;;5055403;28;20052;-81
2021/04/21 07:33:50;;;;;;;14.98;12.80;;;18.10;57.00;;;;;;5055683;28;20067;-88
2021/04/21 07:36:22;;;;;;;15.27;13.23;;;17.70;56.00;;;;;;5070415;28;20028;-88
2021/04/21 07:39:05;;;;;;;14.73;13.23;;;17.20;57.10;;;;;;5060729;28;20037;-84
2021/04/21 07:41:42;;;;;;;14.60;12.80;;;17.30;57.90;;;;;;5067942;28;20370;-88
2021/04/21 07:44:29;;;;;;;16.67;13.07;;;18.50;54.90;;;;;;5055077;28;20025;-88
2021/04/21 07:47:08;;;;;;;15.38;13.77;;;17.00;56.80;;;;;;5055139;28;20040;-88
2021/04/21 07:49:36;;;;;;;14.57;13.18;;;16.60;58.20;;;;;;5055126;28;20095;-87
2021/04/21 07:52:04;;;;;;;15.48;13.90;;;18.00;55.60;;;;;;5073652;28;20056;-87
2021/04/21 07:54:32;;;;;;;14.07;12.63;;;17.50;56.50;;;;;;5057252;28;20032;-87
2021/04/21 07:56:59;;;;;;;14.30;12.43;;;16.70;57.50;;;;;;5073346;28;20044;-87
2021/04/21 07:59:39;;;;;;;13.90;12.40;;;15.80;59.80;;;;;;5083582;28;20025;-81
2021/04/21 08:02:13;;;;;;;15.30;13.55;;;17.80;57.20;;;;;;5079876;28;20028;-87
2021/04/21 08:05:00;;;;;;;14.65;13.05;;;18.40;55.30;;;;;;5079076;28;20019;-84
2021/04/21 08:07:38;;;;;;;15.27;12.90;;;18.00;56.00;;;;;;5078440;28;20028;-87
2021/04/21 08:10:09;;;;;;;14.00;12.57;;;18.00;55.80;;;;;;5079572;28;20037;-86
2021/04/21 08:12:37;;;;;;;13.18;11.73;;;18.40;55.00;;;;;;5060051;28;20044;-88
2021/04/21 08:15:07;;;;;;;12.63;11.32;;;19.40;54.20;;;;;;5063220;28;20029;-88
2021/04/21 08:17:54;;;;;;;14.88;12.77;;;21.00;50.10;;;;;;5066158;28;20043;-87
2021/04/21 08:20:25;;;;;;;13.30;12.00;;;20.00;50.90;;;;;;5055055;28;20383;-87
2021/04/21 08:23:00;;;;;;;13.77;12.40;;;18.30;53.90;;;;;;5054587;28;20025;-87
2021/04/21 08:25:27;;;;;;;14.75;13.30;;;19.30;52.60;;;;;;5054851;28;20029;-87
2021/04/21 08:27:55;;;;;;;14.13;12.65;;;19.70;52.50;;;;;;5076796;28;20036;-85
2021/04/21 08:30:22;;;;;;;13.45;12.15;;;18.60;54.00;;;;;;5064149;28;20025;-87
2021/04/21 08:32:48;;;;;;;13.20;11.80;;;18.10;54.40;;;;;;5053846;28;20044;-87
2021/04/21 08:35:16;;;;;;;13.50;12.15;;;18.00;54.90;;;;;;5055400;28;20036;-87
2021/04/21 08:37:45;;;;;;;12.85;11.65;;;18.30;54.40;;;;;;5069773;28;20045;-88
2021/04/21 08:40:20;;;;;;;13.40;12.02;;;19.50;53.50;;;;;;5054077;28;20033;-86
2021/04/21 08:42:54;;;;;;;14.45;11.45;;;20.60;51.70;;;;;;5070102;28;20500;-87
2021/04/21 08:45:20;;;;;;;14.15;11.77;;;20.00;51.20;;;;;;5071980;28;20028;-87
2021/04/21 08:47:49;;;;;;;13.23;11.48;;;19.20;52.50;;;;;;5054416;28;20040;-88
2021/04/21 08:50:16;;;;;;;13.43;11.82;;;18.40;53.50;;;;;;5073155;28;20361;-87
2021/04/21 08:52:56;;;;;;;12.73;11.45;;;18.40;53.90;;;;;;5062147;28;20024;-88
2021/04/21 08:55:25;;;;;;;15.15;12.50;;;19.20;52.80;;;;;;5061197;28;20441;-88
2021/04/21 08:57:52;;;;;;;11.57;10.35;;;20.10;52.10;;;;;;5054373;28;20044;-87
2021/04/21 09:00:20;;;;;;;12.07;10.35;;;19.50;51.40;;;;;;5057224;28;20480;-89
2021/04/21 09:02:47;;;;;;;12.10;10.88;;;18.50;52.60;;;;;;5060101;28;20033;-87
2021/04/21 09:05:16;;;;;;;12.27;11.07;;;18.40;52.70;;;;;;5053923;28;20044;-87
2021/04/21 09:07:44;;;;;;;11.43;9.75;;;19.50;51.80;;;;;;5053448;28;20045;-87
2021/04/21 09:10:13;;;;;;;11.23;10.10;;;19.60;50.30;;;;;;5069420;28;20025;-88
2021/04/21 09:12:39;;;;;;;10.48;9.48;;;18.90;51.40;;;;;;5069942;28;20044;-86
2021/04/21 09:15:08;;;;;;;11.32;10.13;;;18.10;52.00;;;;;;5053848;28;20025;-86
2021/04/21 09:17:42;;;;;;;12.30;9.60;;;18.10;53.50;;;;;;5069879;28;20420;-86
2021/04/21 09:20:15;;;;;;;7.82;6.43;;;19.00;51.30;;;;;;5053677;28;20044;-87
2021/04/21 09:23:06;;;;;;;9.10;7.55;;;19.00;50.40;;;;;;5052997;28;20381;-86
2021/04/21 09:25:40;;;;;;;11.90;9.60;;;20.40;48.40;;;;;;5053189;28;20025;-87
2021/04/21 09:28:14;;;;;;;9.82;8.30;;;19.50;49.00;;;;;;5063689;28;20029;-87
2021/04/21 09:30:43;;;;;;;12.93;9.15;;;20.10;48.40;;;;;;5052897;28;20068;-87
2021/04/21 09:33:10;;;;;;;8.38;7.57;;;20.10;48.30;;;;;;5054786;28;20033;-87
2021/04/21 09:35:44;;;;;;;8.98;7.35;;;19.80;48.70;;;;;;5069673;28;20036;-86
2021/04/21 09:38:13;;;;;;;11.95;10.35;;;20.70;46.90;;;;;;5053125;28;20021;-86
2021/04/21 09:40:49;;;;;;;12.07;10.88;;;19.60;49.20;;;;;;5052861;28;20062;-86
2021/04/21 09:43:18;;;;;;;13.93;10.40;;;20.10;49.20;;;;;;5061887;28;20040;-85
2021/04/21 09:45:47;;;;;;;9.88;8.88;;;19.60;50.10;;;;;;5066372;28;20024;-87
2021/04/21 09:48:19;;;;;;;13.32;11.77;;;18.80;50.20;;;;;;5053528;28;20046;-87
2021/04/21 09:51:06;;;;;;;12.13;10.80;;;18.50;51.20;;;;;;5063614;28;20017;-86
2021/04/21 09:53:39;;;;;;;12.75;11.45;;;18.50;51.40;;;;;;5057234;28;20040;-86
2021/04/21 09:56:07;;;;;;;10.88;9.75;;;19.60;48.60;;;;;;5058892;28;20044;-87
2021/04/21 09:58:42;;;;;;;11.75;10.55;;;20.20;48.40;;;;;;5067599;28;20089;-84
2021/04/21 10:01:20;;;;;;;12.55;10.45;;;21.10;47.60;;;;;;5070295;28;20032;-85
2021/04/21 10:04:03;;;;;;;13.38;11.45;;;19.90;48.40;;;;;;5064408;28;20047;-86
2021/04/21 10:06:29;;;;;;;11.82;10.55;;;19.40;48.40;;;;;;5052507;28;20392;-84
2021/04/21 10:08:55;;;;;;;11.75;9.90;;;19.50;47.80;;;;;;5052378;28;20048;-86
2021/04/21 10:11:22;;;;;;;12.27;10.57;;;19.30;48.60;;;;;;5052568;28;20028;-86
2021/04/21 10:13:54;;;;;;;13.35;11.52;;;18.90;49.80;;;;;;5052693;28;20060;-85
2021/04/21 10:16:22;;;;;;;12.55;11.25;;;18.60;51.00;;;;;;5052907;28;20039;-85
2021/04/21 10:18:49;;;;;;;11.40;10.30;;;18.50;51.60;;;;;;5052187;28;20029;-86
2021/04/21 10:21:16;;;;;;;12.18;10.38;;;18.70;51.00;;;;;;5066866;28;20045;-87
2021/04/21 10:23:44;;;;;;;12.25;10.30;;;18.70;50.10;;;;;;5052074;28;20477;-87
2021/04/21 10:26:13;;;;;;;13.10;10.70;;;18.10;50.50;;;;;;5052621;28;20043;-85
2021/04/21 10:28:41;;;;;;;13.60;9.25;;;17.80;51.50;;;;;;5067178;28;20044;-83
2021/04/21 10:31:13;;;;;;;14.65;9.98;;;17.80;50.50;;;;;;5076625;28;20027;-83
2021/04/21 10:33:39;;;;;;;9.85;8.48;;;18.10;49.90;;;;;;5074464;28;20027;-84
2021/04/21 10:36:10;;;;;;;11.50;9.00;;;18.10;49.30;;;;;;5076102;28;20028;-81
2021/04/21 10:38:41;;;;;;;10.23;8.20;;;17.70;49.30;;;;;;5075673;28;20031;-83
2021/04/21 10:41:25;;;;;;;11.30;8.35;;;17.90;48.20;;;;;;5070921;28;20033;-85
2021/04/21 10:44:14;;;;;;;12.30;9.20;;;18.30;48.20;;;;;;5066444;28;20035;-86
2021/04/21 10:46:57;;;;;;;12.43;9.85;;;18.40;48.80;;;;;;5058859;28;20096;-87
2021/04/21 10:49:58;;;;;;;11.32;9.32;;;18.10;48.60;;;;;;5055438;28;20028;-86
2021/04/21 10:52:28;;;;;;;10.70;9.43;;;17.90;50.40;;;;;;5069891;28;20029;-88
2021/04/21 10:55:14;;;;;;;12.88;9.52;;;18.40;48.70;;;;;;5055310;28;20032;-87
2021/04/21 10:57:54;;;;;;;10.55;7.43;;;18.00;47.50;;;;;;5057606;28;20041;-86
2021/04/21 11:00:29;;;;;;;13.37;10.00;;;18.40;48.60;;;;;;5066084;28;20037;-88
2021/04/21 11:02:58;;;;;;;11.88;9.18;;;18.50;47.10;;;;;;5053628;28;20033;-87
2021/04/21 11:05:36;;;;;;;10.27;8.20;;;18.50;47.70;;;;;;5053729;28;20469;-88
2021/04/21 11:08:05;;;;;;;11.32;8.13;;;19.30;46.90;;;;;;5056934;28;20389;-86
2021/04/21 11:11:07;;;;;;;10.35;8.45;;;18.90;45.60;;;;;;5054979;28;20029;-87
2021/04/21 11:13:39;;;;;;;13.02;8.75;;;18.70;47.00;;;;;;5047895;28;20108;-86
2021/04/21 11:16:31;;;;;;;9.20;7.72;;;18.50;47.20;;;;;;5052103;28;20029;-86
2021/04/21 11:19:19;;;;;;;12.73;9.73;;;18.60;46.90;;;;;;5027818;28;20389;-86
2021/04/21 11:21:47;;;;;;;11.27;8.73;;;18.50;47.00;;;;;;5055266;28;20370;-85
2021/04/21 11:24:15;;;;;;;10.68;9.02;;;18.30;46.70;;;;;;5057761;28;20025;-85
2021/04/21 11:26:42;;;;;;;12.10;9.45;;;18.10;46.70;;;;;;5056188;28;20040;-84
2021/04/21 11:29:27;;;;;;;10.10;9.02;;;18.30;48.00;;;;;;5056790;28;20462;-89
2021/04/21 11:31:53;;;;;;;9.82;7.82;;;18.60;46.80;;;;;;5056757;28;20060;-88
2021/04/21 11:34:27;;;;;;;7.60;6.45;;;18.50;46.00;;;;;;5064777;28;20044;-87
2021/04/21 11:37:06;;;;;;;8.93;7.07;;;18.70;44.90;;;;;;5057333;28;20021;-87
2021/04/21 11:39:41;;;;;;;11.13;8.05;;;18.80;44.30;;;;;;5065713;28;20374;-87
2021/04/21 11:42:29;;;;;;;10.30;8.10;;;18.70;45.90;;;;;;5058281;28;20381;-87
2021/04/21 11:45:06;;;;;;;8.90;6.97;;;18.70;46.20;;;;;;5052458;28;20500;-88
2021/04/21 11:47:40;;;;;;;10.23;7.05;;;18.60;44.10;;;;;;5051377;28;20031;-85
2021/04/21 11:50:16;;;;;;;9.48;6.82;;;18.80;43.80;;;;;;5051277;28;20037;-87
2021/04/21 11:53:12;;;;;;;7.45;5.90;;;19.20;44.10;;;;;;5052656;28;20021;-87
2021/04/21 11:55:57;;;;;;;9.00;6.60;;;19.20;44.60;;;;;;5070210;28;20029;-87
2021/04/21 11:58:28;;;;;;;8.88;7.13;;;19.40;44.50;;;;;;5056899;28;20045;-85
2021/04/21 12:01:17;;;;;;;8.63;7.45;;;20.00;45.10;;;;;;5055463;28;20072;-86
2021/04/21 12:03:45;;;;;;;6.65;5.95;;;20.70;42.40;;;;;;5055132;28;20028;-87
2021/04/21 12:06:12;;;;;;;9.75;7.00;;;20.30;42.60;;;;;;5056147;28;20044;-88
2021/04/21 12:08:43;;;;;;;8.52;6.93;;;20.00;43.10;;;;;;5065039;28;20125;-89
2021/04/21 12:11:10;;;;;;;8.52;6.95;;;19.40;43.40;;;;;;5058875;28;20496;-87
2021/04/21 12:13:47;;;;;;;7.63;6.80;;;19.60;43.90;;;;;;5063213;28;20033;-89
2021/04/21 12:16:17;;;;;;;8.18;7.30;;;20.30;43.70;;;;;;5063618;28;20024;-89
2021/04/21 12:18:49;;;;;;;8.43;6.82;;;20.40;43.30;;;;;;5067882;28;20021;-88
2021/04/21 12:21:16;;;;;;;9.18;7.13;;;20.50;43.20;;;;;;5055587;28;20078;-86
2021/04/21 12:24:06;;;;;;;9.18;6.43;;;20.40;42.20;;;;;;5056444;28;20032;-88
2021/04/21 12:26:37;;;;;;;8.30;6.90;;;19.50;42.60;;;;;;5056237;28;20485;-90
2021/04/21 12:29:09;;;;;;;7.03;6.10;;;19.70;43.30;;;;;;5059826;28;20040;-84
2021/04/21 12:31:36;;;;;;;8.43;6.47;;;19.70;42.90;;;;;;5054503;28;20048;-89
2021/04/21 12:34:05;;;;;;;7.00;5.95;;;19.80;42.90;;;;;;5055352;28;20091;-86
2021/04/21 12:36:32;;;;;;;8.07;6.15;;;19.90;42.50;;;;;;5054731;28;20021;-88
2021/04/21 12:39:11;;;;;;;8.52;7.10;;;19.80;43.00;;;;;;5073786;28;20040;-88
2021/04/21 12:41:42;;;;;;;7.75;6.15;;;19.30;43.50;;;;;;5054569;28;20025;-87
2021/04/21 12:44:26;;;;;;;7.22;6.15;;;19.10;43.60;;;;;;5054097;28;20478;-87
2021/04/21 12:46:55;;;;;;;6.65;5.85;;;19.10;42.90;;;;;;5056111;28;20024;-86
2021/04/21 12:49:36;;;;;;;8.05;5.85;;;19.20;43.00;;;;;;5059992;28;20029;-84
2021/04/21 12:52:05;;;;;;;9.65;5.80;;;19.50;42.70;;;;;;5058050;28;20028;-90
2021/04/21 12:54:41;;;;;;;8.15;5.88;;;19.50;41.70;;;;;;5062990;28;20032;-83
2021/04/21 12:57:09;;;;;;;8.23;5.22;;;19.10;41.90;;;;;;5054356;28;20037;-87
2021/04/21 12:59:40;;;;;;;4.18;3.15;;;19.00;41.80;;;;;;5069079;28;20040;-84
2021/04/21 13:02:07;;;;;;;5.97;4.30;;;19.30;38.90;;;;;;5073165;28;20052;-84
2021/04/21 13:04:39;;;;;;;4.38;3.45;;;19.40;40.40;;;;;;5074271;28;20031;-83
2021/04/21 13:07:23;;;;;;;3.70;2.67;;;19.40;39.70;;;;;;5077954;28;20030;-81
2021/04/21 13:09:50;;;;;;;5.30;2.17;;;19.40;38.60;;;;;;5077805;28;20029;-86
2021/04/21 13:12:21;;;;;;;3.88;2.67;;;19.70;37.70;;;;;;5057415;28;20029;-86
2021/04/21 13:14:48;;;;;;;4.25;2.72;;;19.60;38.90;;;;;;5068699;28;20036;-86